Time;durP1;ratioP1;P1;durP2;ratioP2;P2;SDS_P1;SDS_P2;PMS_P1;PMS_P2;Temp;Humidity;BMP_temperature;BMP_pressure;BME280_temperature;BME280_humidity;BME280_pressure;Samples;Min_cycle;Max_cycle;Signal;HPM_P1;HPM_P2
2021/11/16 00:00:02;;;;;;;53.80;29.60;;;7.80;99.90;;;;;;5117110;28;20924;-68
2021/11/16 00:02:29;;;;;;;50.50;30.33;;;7.80;99.90;;;;;;5116857;28;20496;-68
2021/11/16 00:04:55;;;;;;;52.90;29.80;;;7.80;99.90;;;;;;5116489;28;20895;-68
2021/11/16 00:07:23;;;;;;;47.57;29.57;;;7.80;99.90;;;;;;5117407;28;20464;-68
2021/11/16 00:09:50;;;;;;;57.20;31.87;;;7.80;99.90;;;;;;5117247;28;20464;-68
2021/11/16 00:12:17;;;;;;;46.40;29.77;;;7.80;99.90;;;;;;5116881;28;20470;-68
2021/11/16 00:14:47;;;;;;;53.93;29.93;;;7.80;99.90;;;;;;5117072;28;20490;-68
2021/11/16 00:17:14;;;;;;;50.07;30.03;;;7.80;99.90;;;;;;5116306;28;20445;-68
2021/11/16 00:19:42;;;;;;;57.90;32.80;;;7.90;99.90;;;;;;5117242;28;20765;-68
2021/11/16 00:22:15;;;;;;;51.10;29.27;;;7.90;99.90;;;;;;5116429;28;21003;-68
2021/11/16 00:24:56;;;;;;;55.03;32.00;;;7.90;99.90;;;;;;5117309;28;20549;-68
2021/11/16 00:27:23;;;;;;;49.30;28.30;;;7.90;99.90;;;;;;5116805;28;20881;-68
2021/11/16 00:29:51;;;;;;;52.33;31.00;;;7.90;99.90;;;;;;5116618;28;20784;-67
2021/11/16 00:32:17;;;;;;;56.77;31.80;;;7.90;99.90;;;;;;5116964;28;20467;-68
2021/11/16 00:34:44;;;;;;;53.87;30.33;;;7.90;99.90;;;;;;5116802;28;20754;-68
2021/11/16 00:37:11;;;;;;;53.07;31.50;;;7.90;99.90;;;;;;5116291;28;20465;-68
2021/11/16 00:39:38;;;;;;;53.77;31.60;;;7.90;99.90;;;;;;5116377;28;20460;-67
2021/11/16 00:42:07;;;;;;;51.20;31.03;;;7.90;99.90;;;;;;5116250;28;20522;-68
2021/11/16 00:44:40;;;;;;;57.00;28.30;;;7.90;99.90;;;;;;5116110;28;20480;-68
2021/11/16 00:47:08;;;;;;;49.77;29.00;;;7.90;99.90;;;;;;5116209;28;20765;-68
2021/11/16 00:49:35;;;;;;;53.73;31.10;;;8.00;99.90;;;;;;5116266;28;20473;-67
2021/11/16 00:52:02;;;;;;;62.00;32.93;;;8.00;99.90;;;;;;5116354;28;20805;-67
2021/11/16 00:54:29;;;;;;;51.83;31.13;;;8.00;99.90;;;;;;5115883;28;20938;-67
2021/11/16 00:56:56;;;;;;;58.03;31.03;;;7.90;99.90;;;;;;5116112;28;20453;-67
2021/11/16 00:59:22;;;;;;;54.17;32.07;;;7.90;99.90;;;;;;5115964;28;20460;-67
2021/11/16 01:01:49;;;;;;;52.23;30.73;;;7.90;99.90;;;;;;5116207;28;20492;-67
2021/11/16 01:04:17;;;;;;;49.93;29.17;;;7.90;99.90;;;;;;5115766;28;20469;-68
2021/11/16 01:06:45;;;;;;;50.50;29.97;;;7.90;99.90;;;;;;5115809;28;20917;-67
2021/11/16 01:09:12;;;;;;;64.80;35.37;;;7.80;99.90;;;;;;5115947;28;20460;-69
2021/11/16 01:11:39;;;;;;;58.13;32.30;;;7.80;99.90;;;;;;5116059;28;20453;-68
2021/11/16 01:14:07;;;;;;;59.37;32.50;;;7.80;99.90;;;;;;5115952;28;20460;-66
2021/11/16 01:16:34;;;;;;;59.57;31.60;;;7.80;99.90;;;;;;5114865;28;20467;-67
2021/11/16 01:19:02;;;;;;;56.07;32.27;;;7.80;99.90;;;;;;5115143;28;20464;-68
2021/11/16 01:21:30;;;;;;;55.97;30.80;;;7.80;99.90;;;;;;5115398;28;20789;-67
2021/11/16 01:23:57;;;;;;;49.60;29.43;;;7.70;99.90;;;;;;5115976;28;20472;-67
2021/11/16 01:26:23;;;;;;;55.37;34.00;;;7.70;99.90;;;;;;5115636;28;20534;-67
2021/11/16 01:28:50;;;;;;;60.53;32.67;;;7.70;99.90;;;;;;5115745;28;20916;-68
2021/11/16 01:31:17;;;;;;;53.23;32.77;;;7.80;99.90;;;;;;5115535;28;20453;-68
2021/11/16 01:33:48;;;;;;;53.83;30.83;;;7.70;99.90;;;;;;5115559;28;20460;-68
2021/11/16 01:36:16;;;;;;;52.00;30.70;;;7.70;99.90;;;;;;5115752;28;20577;-68
2021/11/16 01:38:45;;;;;;;51.07;31.50;;;7.70;99.90;;;;;;5115955;28;20460;-68
2021/11/16 01:41:18;;;;;;;56.67;32.23;;;7.70;99.90;;;;;;5116428;28;20784;-68
2021/11/16 01:43:45;;;;;;;57.17;32.47;;;7.70;99.90;;;;;;5119390;28;20597;-68
2021/11/16 01:46:15;;;;;;;58.53;33.93;;;7.70;99.90;;;;;;5117151;28;20491;-68
2021/11/16 01:48:42;;;;;;;57.97;33.90;;;7.70;99.90;;;;;;5115270;28;20455;-68
2021/11/16 01:51:09;;;;;;;61.17;35.47;;;7.70;99.90;;;;;;5115620;28;20457;-69
2021/11/16 01:53:36;;;;;;;61.87;34.10;;;7.60;99.90;;;;;;5116562;28;20470;-68
2021/11/16 01:56:09;;;;;;;58.37;31.90;;;7.70;99.90;;;;;;5115839;28;20777;-67
2021/11/16 01:58:35;;;;;;;57.83;31.90;;;7.70;99.90;;;;;;5115832;28;20459;-67
2021/11/16 02:01:03;;;;;;;58.30;32.70;;;7.70;99.90;;;;;;5116083;28;20790;-67
2021/11/16 02:03:30;;;;;;;59.57;33.77;;;7.60;99.90;;;;;;5116321;28;20743;-67
2021/11/16 02:05:58;;;;;;;58.80;33.60;;;7.60;99.90;;;;;;5115936;28;20503;-68
2021/11/16 02:08:26;;;;;;;56.47;31.40;;;7.60;99.90;;;;;;5116146;28;20459;-67
2021/11/16 02:10:54;;;;;;;56.43;32.07;;;7.60;99.90;;;;;;5116170;28;20469;-68
2021/11/16 02:13:23;;;;;;;62.70;32.03;;;7.70;99.90;;;;;;5115887;28;20455;-68
2021/11/16 02:15:52;;;;;;;59.67;33.17;;;7.60;99.90;;;;;;5115203;28;20451;-68
2021/11/16 02:18:19;;;;;;;57.73;32.87;;;7.60;99.90;;;;;;5116116;28;20456;-68
2021/11/16 02:20:49;;;;;;;65.90;35.00;;;7.60;99.90;;;;;;5115021;28;20486;-68
2021/11/16 02:23:17;;;;;;;64.87;32.00;;;7.40;99.90;;;;;;5115842;28;20445;-67
2021/11/16 02:25:48;;;;;;;61.83;34.40;;;7.20;99.90;;;;;;5115225;28;20547;-67
2021/11/16 02:28:16;;;;;;;55.87;32.70;;;7.10;99.90;;;;;;5116099;28;20483;-67
2021/11/16 02:30:43;;;;;;;63.97;34.87;;;7.10;99.90;;;;;;5119525;28;20460;-69
2021/11/16 02:33:10;;;;;;;54.97;33.20;;;7.20;99.90;;;;;;5119463;28;20492;-68
2021/11/16 02:35:37;;;;;;;58.53;31.60;;;7.20;99.90;;;;;;5119066;28;20451;-68
2021/11/16 02:38:05;;;;;;;56.20;33.90;;;7.30;99.90;;;;;;5119191;28;20459;-68
2021/11/16 02:40:31;;;;;;;60.23;32.90;;;7.40;99.90;;;;;;5118926;27;20457;-68
2021/11/16 02:42:58;;;;;;;59.77;32.60;;;7.40;99.90;;;;;;5118663;28;20471;-68
2021/11/16 02:45:25;;;;;;;66.47;35.17;;;7.50;99.90;;;;;;5119006;28;20480;-68
2021/11/16 02:47:53;;;;;;;63.07;35.03;;;7.50;99.90;;;;;;5118979;28;20830;-68
2021/11/16 02:50:21;;;;;;;63.33;33.30;;;7.40;99.90;;;;;;5119340;28;20460;-67
2021/11/16 02:52:48;;;;;;;59.53;35.40;;;7.50;99.90;;;;;;5119650;28;20470;-68
2021/11/16 02:55:17;;;;;;;57.87;33.30;;;7.50;99.90;;;;;;5118775;28;20783;-67
2021/11/16 02:57:44;;;;;;;59.40;33.53;;;7.50;99.90;;;;;;5118792;28;20815;-67
2021/11/16 03:00:13;;;;;;;55.87;33.03;;;7.50;99.90;;;;;;5118493;28;20462;-68
2021/11/16 03:02:41;;;;;;;60.97;33.00;;;7.40;99.90;;;;;;5118195;28;20716;-68
2021/11/16 03:05:09;;;;;;;52.50;30.97;;;7.50;99.90;;;;;;5118760;28;20813;-68
2021/11/16 03:07:39;;;;;;;65.13;33.40;;;7.50;99.90;;;;;;5119307;27;20805;-68
2021/11/16 03:10:09;;;;;;;52.83;31.30;;;7.40;99.90;;;;;;5118827;28;20444;-68
2021/11/16 03:12:38;;;;;;;56.70;31.90;;;7.40;99.90;;;;;;5118731;28;20934;-67
2021/11/16 03:15:06;;;;;;;61.33;33.83;;;7.40;99.90;;;;;;5118506;28;20486;-68
2021/11/16 03:17:33;;;;;;;60.73;32.27;;;7.40;99.90;;;;;;5118511;28;20804;-68
2021/11/16 03:20:00;;;;;;;58.40;31.20;;;7.40;99.90;;;;;;5118528;28;20464;-67
2021/11/16 03:22:32;;;;;;;57.80;32.90;;;7.40;99.90;;;;;;5117717;28;20491;-67
2021/11/16 03:25:01;;;;;;;57.63;31.43;;;7.40;99.90;;;;;;5118445;28;20441;-67
2021/11/16 03:27:34;;;;;;;67.60;31.77;;;7.30;99.90;;;;;;5118229;27;20967;-68
2021/11/16 03:30:02;;;;;;;61.53;33.90;;;7.20;99.90;;;;;;5118003;28;20443;-68
2021/11/16 03:32:35;;;;;;;59.43;33.97;;;7.30;99.90;;;;;;5117556;27;20454;-68
2021/11/16 03:35:03;;;;;;;60.47;32.57;;;7.10;99.90;;;;;;5118019;28;20451;-69
2021/11/16 03:37:34;;;;;;;62.20;33.97;;;7.00;99.90;;;;;;5117938;28;20798;-68
2021/11/16 03:40:01;;;;;;;58.27;34.50;;;6.90;99.90;;;;;;5116670;28;20497;-67
2021/11/16 03:42:28;;;;;;;62.40;34.43;;;6.90;99.90;;;;;;5117880;28;20769;-67
2021/11/16 03:44:55;;;;;;;56.60;32.80;;;6.90;99.90;;;;;;5117484;28;20927;-67
2021/11/16 03:47:23;;;;;;;60.43;31.90;;;7.00;99.90;;;;;;5117785;28;20483;-68
2021/11/16 03:49:50;;;;;;;58.33;32.27;;;7.00;99.90;;;;;;5117702;27;20471;-68
2021/11/16 03:52:21;;;;;;;57.27;31.93;;;7.10;99.90;;;;;;5117258;28;20927;-68
2021/11/16 03:54:48;;;;;;;53.43;31.57;;;7.20;99.90;;;;;;5117549;28;20899;-68
2021/11/16 03:57:15;;;;;;;56.90;31.70;;;7.20;99.90;;;;;;5117926;28;20958;-67
2021/11/16 03:59:41;;;;;;;57.10;32.90;;;7.20;99.90;;;;;;5117192;28;20517;-68
2021/11/16 04:02:08;;;;;;;54.67;32.63;;;7.30;99.90;;;;;;5117484;28;20475;-68
2021/11/16 04:04:36;;;;;;;53.70;33.00;;;7.30;99.90;;;;;;5117685;27;20792;-68
2021/11/16 04:07:04;;;;;;;57.53;32.00;;;7.30;99.90;;;;;;5116975;28;20491;-68
2021/11/16 04:09:30;;;;;;;56.87;33.00;;;7.30;99.90;;;;;;5117151;28;20466;-68
2021/11/16 04:11:57;;;;;;;56.20;31.80;;;7.40;99.90;;;;;;5116879;28;20516;-67
2021/11/16 04:14:24;;;;;;;56.07;31.93;;;7.40;99.90;;;;;;5116853;27;20486;-68
2021/11/16 04:16:54;;;;;;;59.00;32.07;;;7.40;99.90;;;;;;5117269;28;20459;-68
2021/11/16 04:19:22;;;;;;;57.90;32.83;;;7.40;99.90;;;;;;5117410;28;20549;-67
2021/11/16 04:21:50;;;;;;;56.43;32.40;;;7.30;99.90;;;;;;5116320;28;20482;-67
2021/11/16 04:24:17;;;;;;;53.33;32.00;;;7.30;99.90;;;;;;5116901;28;20454;-68
2021/11/16 04:26:44;;;;;;;54.03;32.53;;;7.30;99.90;;;;;;5117001;28;20815;-68
2021/11/16 04:29:10;;;;;;;60.23;32.47;;;7.30;99.90;;;;;;5116556;28;20451;-68
2021/11/16 04:31:37;;;;;;;52.93;30.33;;;7.30;99.90;;;;;;5116414;28;20470;-68
2021/11/16 04:34:05;;;;;;;52.37;30.27;;;7.30;99.90;;;;;;5116445;28;20464;-67
2021/11/16 04:36:32;;;;;;;54.47;31.40;;;7.30;99.90;;;;;;5116697;28;20478;-67
2021/11/16 04:39:03;;;;;;;58.77;31.93;;;7.30;99.90;;;;;;5115946;28;20502;-67
2021/11/16 04:41:29;;;;;;;65.67;35.27;;;7.30;99.90;;;;;;5116959;28;20454;-67
2021/11/16 04:43:58;;;;;;;61.83;32.83;;;7.30;99.90;;;;;;5116779;28;20465;-68
2021/11/16 04:46:26;;;;;;;58.47;33.00;;;7.20;99.90;;;;;;5116623;28;20482;-68
2021/11/16 04:48:59;;;;;;;61.53;32.50;;;7.20;99.90;;;;;;5116845;28;20460;-68
2021/11/16 04:54:21;;;;;;;64.47;32.27;;;7.20;99.90;;;;;;5116012;28;20431;-67
2021/11/16 04:59:41;;;;;;;62.53;35.30;;;7.00;99.90;;;;;;5116195;28;20427;-67
2021/11/16 05:04:56;;;;;;;66.07;34.30;;;7.00;99.90;;;;;;5116306;28;20427;-68
2021/11/16 05:07:25;;;;;;;57.70;32.00;;;6.90;99.90;;;;;;5115849;28;20961;-68
2021/11/16 05:09:55;;;;;;;66.03;33.13;;;7.00;99.90;;;;;;5115880;28;20459;-68
2021/11/16 05:12:27;;;;;;;65.03;33.87;;;7.00;99.90;;;;;;5115803;28;20438;-68
2021/11/16 05:14:55;;;;;;;54.63;30.83;;;6.90;99.90;;;;;;5116051;28;20483;-67
2021/11/16 05:17:23;;;;;;;59.80;33.93;;;7.00;99.90;;;;;;5115811;28;20510;-67
2021/11/16 05:19:51;;;;;;;69.47;36.07;;;7.00;99.90;;;;;;5115809;28;20455;-67
2021/11/16 05:22:20;;;;;;;61.40;34.10;;;7.10;99.90;;;;;;5115209;28;20491;-67
2021/11/16 05:24:47;;;;;;;62.30;33.63;;;6.90;99.90;;;;;;5115435;28;20500;-68
2021/11/16 05:27:16;;;;;;;66.03;34.17;;;6.90;99.90;;;;;;5115463;28;20481;-68
2021/11/16 05:29:45;;;;;;;70.47;35.07;;;6.80;99.90;;;;;;5115598;28;20454;-67
2021/11/16 05:32:12;;;;;;;67.10;35.30;;;6.70;99.90;;;;;;5115290;28;20469;-67
2021/11/16 05:34:39;;;;;;;61.20;34.23;;;6.70;99.90;;;;;;5115813;28;20527;-69
2021/11/16 05:37:06;;;;;;;73.53;34.70;;;6.80;99.90;;;;;;5115819;28;20466;-68
2021/11/16 05:39:32;;;;;;;63.00;33.63;;;6.80;99.90;;;;;;5115339;28;20466;-67
2021/11/16 05:41:59;;;;;;;69.77;35.97;;;6.80;99.90;;;;;;5115450;28;20531;-68
2021/11/16 05:44:28;;;;;;;66.77;35.33;;;6.80;99.90;;;;;;5115459;28;20459;-68
2021/11/16 05:46:55;;;;;;;64.97;35.03;;;6.90;99.90;;;;;;5115156;28;20805;-68
2021/11/16 05:49:22;;;;;;;69.10;34.27;;;6.80;99.90;;;;;;5115727;28;20454;-67
2021/11/16 05:51:49;;;;;;;74.87;37.30;;;6.80;99.90;;;;;;5115284;28;20455;-68
2021/11/16 05:54:19;;;;;;;68.20;34.77;;;6.80;99.90;;;;;;5115205;28;20466;-67
2021/11/16 05:56:46;;;;;;;64.53;35.33;;;6.70;99.90;;;;;;5115317;28;20453;-68
2021/11/16 05:59:13;;;;;;;67.63;33.70;;;6.70;99.90;;;;;;5115141;28;20838;-68
2021/11/16 06:02:00;;;;;;;63.67;32.80;;;6.80;99.90;;;;;;5118711;28;20465;-67
2021/11/16 06:04:26;;;;;;;77.73;40.13;;;6.80;99.90;;;;;;5119017;28;20521;-67
2021/11/16 06:06:54;;;;;;;63.07;34.33;;;7.00;99.90;;;;;;5118234;28;20954;-67
2021/11/16 06:09:21;;;;;;;68.90;35.90;;;7.00;99.90;;;;;;5118544;28;20754;-67
2021/11/16 06:11:48;;;;;;;65.10;32.53;;;6.90;99.90;;;;;;5118895;28;20514;-68
2021/11/16 06:14:14;;;;;;;70.33;35.83;;;6.90;99.90;;;;;;5118676;28;20457;-67
2021/11/16 06:16:45;;;;;;;66.27;34.43;;;7.00;99.90;;;;;;5119047;28;20915;-67
2021/11/16 06:19:12;;;;;;;75.37;36.00;;;6.90;99.90;;;;;;5118678;28;20502;-69
2021/11/16 06:21:39;;;;;;;66.70;34.43;;;6.90;99.90;;;;;;5118234;28;20477;-69
2021/11/16 06:24:07;;;;;;;67.20;35.03;;;6.90;99.90;;;;;;5119025;28;20534;-69
2021/11/16 06:26:33;;;;;;;69.63;37.27;;;7.00;99.90;;;;;;5119044;28;20506;-68
2021/11/16 06:29:04;;;;;;;71.20;36.00;;;6.90;99.90;;;;;;5119210;28;20946;-69
2021/11/16 06:31:31;;;;;;;78.33;36.93;;;6.90;99.90;;;;;;5119684;27;20440;-69
2021/11/16 06:34:02;;;;;;;66.50;34.87;;;6.80;99.90;;;;;;5118789;28;20458;-68
2021/11/16 06:36:35;;;;;;;72.37;34.57;;;6.80;99.90;;;;;;5118521;28;20450;-68
2021/11/16 06:39:04;;;;;;;60.97;32.53;;;6.80;99.90;;;;;;5119040;28;20762;-68
2021/11/16 06:41:31;;;;;;;61.13;33.07;;;6.70;99.90;;;;;;5118617;28;20464;-68
2021/11/16 06:43:58;;;;;;;67.33;34.53;;;6.50;99.90;;;;;;5118037;28;20514;-68
2021/11/16 06:46:25;;;;;;;64.20;34.90;;;6.50;99.90;;;;;;5118380;28;20505;-68
2021/11/16 06:48:52;;;;;;;60.47;31.40;;;6.50;99.90;;;;;;5118705;28;20458;-68
2021/11/16 06:51:20;;;;;;;67.27;35.50;;;6.50;99.90;;;;;;5118092;28;20816;-68
2021/11/16 06:53:46;;;;;;;58.20;30.90;;;6.60;99.90;;;;;;5118136;28;20467;-68
2021/11/16 06:56:15;;;;;;;60.07;30.67;;;6.70;99.90;;;;;;5118534;28;20445;-68
2021/11/16 06:58:42;;;;;;;53.80;30.20;;;6.70;99.90;;;;;;5118420;28;20573;-68
2021/11/16 07:01:09;;;;;;;58.40;29.77;;;6.60;99.90;;;;;;5117970;28;20468;-68
2021/11/16 07:03:36;;;;;;;59.83;29.80;;;6.50;99.90;;;;;;5118435;28;20454;-68
2021/11/16 07:06:05;;;;;;;57.57;28.73;;;6.60;99.90;;;;;;5117962;28;20840;-67
2021/11/16 07:08:36;;;;;;;53.67;29.60;;;6.40;99.90;;;;;;5117501;28;20897;-69
2021/11/16 07:11:05;;;;;;;52.10;29.17;;;6.40;99.90;;;;;;5118173;28;20450;-68
2021/11/16 07:13:32;;;;;;;56.50;30.33;;;6.30;99.90;;;;;;5117894;28;20469;-68
2021/11/16 07:15:59;;;;;;;55.53;29.80;;;6.30;99.90;;;;;;5117119;28;20817;-68
2021/11/16 07:18:26;;;;;;;57.70;30.93;;;6.20;99.90;;;;;;5118120;28;20483;-68
2021/11/16 07:20:58;;;;;;;56.37;30.40;;;6.20;99.90;;;;;;5117319;28;20489;-68
2021/11/16 07:23:27;;;;;;;62.27;30.77;;;6.10;99.90;;;;;;5117552;28;20437;-68
2021/11/16 07:25:56;;;;;;;68.73;30.87;;;6.10;99.90;;;;;;5117186;28;20454;-68
2021/11/16 07:28:23;;;;;;;63.00;32.40;;;6.30;99.90;;;;;;5117018;28;20485;-68
2021/11/16 07:30:50;;;;;;;55.53;30.80;;;6.30;99.90;;;;;;5117602;28;20792;-68
2021/11/16 07:33:19;;;;;;;56.73;31.23;;;6.30;99.90;;;;;;5117144;28;20927;-68
2021/11/16 07:35:47;;;;;;;69.53;32.43;;;6.40;99.90;;;;;;5116957;28;20465;-69
2021/11/16 07:38:18;;;;;;;64.50;32.57;;;6.50;99.90;;;;;;5117246;28;20447;-69
2021/11/16 07:40:47;;;;;;;57.97;31.17;;;6.50;99.90;;;;;;5117133;28;20886;-69
2021/11/16 07:43:17;;;;;;;67.40;33.60;;;6.50;99.90;;;;;;5117293;28;20462;-69
2021/11/16 07:45:45;;;;;;;59.00;31.03;;;6.40;99.90;;;;;;5117142;28;20458;-69
2021/11/16 07:48:14;;;;;;;71.93;35.37;;;6.50;99.90;;;;;;5117278;28;20486;-68
2021/11/16 07:50:45;;;;;;;69.47;32.00;;;6.50;99.90;;;;;;5117020;28;20457;-69
2021/11/16 07:53:18;;;;;;;66.43;31.50;;;6.50;99.90;;;;;;5117522;28;20442;-68
2021/11/16 07:55:47;;;;;;;63.33;34.43;;;6.70;99.90;;;;;;5116835;28;20780;-68
2021/11/16 07:58:15;;;;;;;79.23;34.90;;;6.80;99.90;;;;;;5116775;28;20451;-69
2021/11/16 08:00:47;;;;;;;111.80;32.33;;;6.90;99.90;;;;;;5117116;28;20803;-68
2021/11/16 08:03:19;;;;;;;107.57;34.53;;;7.00;99.90;;;;;;5116160;28;20892;-68
2021/11/16 08:05:56;;;;;;;106.00;50.40;;;7.20;99.90;;;;;;5116741;28;20527;-70
2021/11/16 08:08:35;;;;;;;66.67;34.60;;;7.30;99.90;;;;;;5116368;28;20508;-68
2021/11/16 08:11:07;;;;;;;59.83;31.10;;;7.40;99.90;;;;;;5116727;28;20873;-68
2021/11/16 08:13:35;;;;;;;59.27;31.13;;;7.60;99.90;;;;;;5116652;28;20521;-68
2021/11/16 08:16:09;;;;;;;57.07;30.80;;;7.70;99.90;;;;;;5116378;28;20456;-68
2021/11/16 08:18:45;;;;;;;59.37;31.27;;;7.70;99.90;;;;;;5116243;28;20483;-69
2021/11/16 08:21:13;;;;;;;55.00;30.43;;;7.80;99.90;;;;;;5115889;28;20563;-68
2021/11/16 08:23:47;;;;;;;60.00;30.53;;;7.90;99.90;;;;;;5116649;28;20510;-68
2021/11/16 08:26:16;;;;;;;54.80;29.23;;;7.90;38.50;;;;;;5116166;28;20456;-68
2021/11/16 08:28:51;;;;;;;54.87;30.50;;;8.00;26.90;;;;;;5116420;28;20484;-69
2021/11/16 08:31:18;;;;;;;55.27;31.03;;;8.10;99.90;;;;;;5116554;28;20447;-69
2021/11/16 08:33:46;;;;;;;49.57;29.90;;;8.10;99.90;;;;;;5115948;28;20457;-69
2021/11/16 08:36:13;;;;;;;63.37;32.80;;;8.20;99.90;;;;;;5116285;28;20460;-69
2021/11/16 08:38:41;;;;;;;55.47;30.77;;;8.30;1.00;;;;;;5115681;28;20475;-69
2021/11/16 08:41:08;;;;;;;53.17;28.70;;;8.30;1.00;;;;;;5115964;28;20913;-69
2021/11/16 08:43:38;;;;;;;60.40;30.73;;;8.40;1.00;;;;;;5115619;28;20512;-69
2021/11/16 08:46:16;;;;;;;61.70;31.80;;;8.40;1.00;;;;;;5115932;28;20442;-69
2021/11/16 08:48:47;;;;;;;50.70;29.30;;;8.50;1.00;;;;;;5115955;28;20479;-69
2021/11/16 08:51:17;;;;;;;59.17;28.17;;;8.60;1.00;;;;;;5116044;28;20490;-69
2021/11/16 08:53:45;;;;;;;54.37;29.13;;;8.60;1.00;;;;;;5115607;28;20440;-69
2021/11/16 08:56:15;;;;;;;53.40;28.80;;;8.70;1.00;;;;;;5115747;28;20490;-69
2021/11/16 08:58:42;;;;;;;56.77;29.23;;;8.70;1.00;;;;;;5115503;28;20457;-69
2021/11/16 09:01:12;;;;;;;54.83;29.97;;;8.80;1.00;;;;;;5115822;28;20456;-69
2021/11/16 09:03:44;;;;;;;56.17;30.53;;;8.90;1.00;;;;;;5115927;28;20491;-69
2021/11/16 09:06:17;;;;;;;48.83;28.70;;;9.00;1.00;;;;;;5115502;28;20448;-69
2021/11/16 09:08:45;;;;;;;50.87;27.97;;;9.00;1.00;;;;;;5115846;28;20509;-69
2021/11/16 09:11:15;;;;;;;51.57;26.27;;;9.00;1.00;;;;;;5115895;27;20462;-69
2021/11/16 09:13:45;;;;;;;53.83;29.63;;;9.00;1.00;;;;;;5116152;28;20448;-69
2021/11/16 09:16:15;;;;;;;56.10;28.93;;;9.10;1.00;;;;;;5115399;28;20469;-69
2021/11/16 09:18:44;;;;;;;58.70;30.03;;;9.20;1.00;;;;;;5115745;28;20502;-69
2021/11/16 09:21:14;;;;;;;63.00;28.17;;;9.30;1.00;;;;;;5115269;28;20488;-69
2021/11/16 09:23:44;;;;;;;59.73;29.97;;;9.40;1.00;;;;;;5115502;28;20514;-69
2021/11/16 09:26:19;;;;;;;57.30;30.93;;;9.50;1.00;;;;;;5115747;28;20437;-69
2021/11/16 09:28:50;;;;;;;54.27;30.43;;;9.50;1.00;;;;;;5114764;28;20457;-69
2021/11/16 09:31:24;;;;;;;65.70;29.60;;;9.50;1.00;;;;;;5115003;28;20497;-69
2021/11/16 09:33:53;;;;;;;59.87;30.67;;;9.60;1.00;;;;;;5114715;28;20451;-69
2021/11/16 09:36:25;;;;;;;61.63;30.40;;;9.60;1.00;;;;;;5114589;28;20459;-69
2021/11/16 09:38:56;;;;;;;91.00;33.07;;;9.70;1.00;;;;;;5113782;28;20437;-69
2021/11/16 09:41:32;;;;;;;60.97;29.63;;;9.80;1.00;;;;;;5115151;28;20447;-69
2021/11/16 09:44:01;;;;;;;72.90;30.63;;;9.80;99.90;;;;;;5115029;28;20747;-69
2021/11/16 09:46:29;;;;;;;54.03;29.43;;;9.80;99.90;;;;;;5115143;28;20468;-70
2021/11/16 09:49:02;;;;;;;73.00;30.73;;;9.80;99.90;;;;;;5114718;28;20932;-69
2021/11/16 09:51:30;;;;;;;60.27;28.10;;;9.90;99.90;;;;;;5114350;28;20459;-68
2021/11/16 09:54:03;;;;;;;49.33;27.30;;;9.90;99.90;;;;;;5114665;28;20460;-68
2021/11/16 09:56:32;;;;;;;52.83;28.70;;;9.90;99.90;;;;;;5114635;28;20444;-69
2021/11/16 09:58:59;;;;;;;50.17;26.57;;;9.80;99.90;;;;;;5114885;28;20544;-69
2021/11/16 10:01:32;;;;;;;47.53;27.87;;;9.60;99.90;;;;;;5114800;28;20462;-69
2021/11/16 10:04:25;;;;;;;52.57;29.40;;;9.60;99.90;;;;;;5115670;28;20475;-68
2021/11/16 10:06:52;;;;;;;48.53;26.60;;;9.60;99.90;;;;;;5113316;28;20458;-68
2021/11/16 10:09:18;;;;;;;51.60;27.33;;;9.40;1.00;;;;;;5116680;28;20477;-68
2021/11/16 10:11:53;;;;;;;50.20;29.40;;;9.30;1.00;;;;;;5117311;28;20772;-68
2021/11/16 10:14:23;;;;;;;51.13;27.67;;;9.30;1.00;;;;;;5117899;28;20438;-68
2021/11/16 10:16:52;;;;;;;51.03;26.90;;;9.40;1.00;;;;;;5117280;28;20560;-68
2021/11/16 10:19:22;;;;;;;52.23;29.33;;;9.50;1.00;;;;;;5117150;28;20448;-68
2021/11/16 10:21:48;;;;;;;50.83;28.70;;;9.50;1.00;;;;;;5116710;28;20969;-68
2021/11/16 10:24:31;;;;;;;59.00;29.67;;;9.40;1.00;;;;;;5115770;28;20855;-68
2021/11/16 10:27:23;;;;;;;63.37;30.97;;;9.40;1.00;;;;;;5116245;28;20547;-68
2021/11/16 10:30:05;;;;;;;57.30;29.00;;;9.40;1.00;;;;;;5115842;28;20451;-68
2021/11/16 10:32:34;;;;;;;45.83;26.50;;;9.40;1.00;;;;;;5116152;28;20503;-69
2021/11/16 10:35:08;;;;;;;54.10;28.23;;;9.40;1.00;;;;;;5116728;28;20462;-68
2021/11/16 10:37:47;;;;;;;58.93;29.90;;;9.50;1.00;;;;;;5116122;28;20433;-68
2021/11/16 10:40:15;;;;;;;48.13;28.17;;;9.50;1.00;;;;;;5116434;28;20883;-68
2021/11/16 10:42:46;;;;;;;47.63;26.90;;;9.40;1.00;;;;;;5116137;28;20444;-68
2021/11/16 10:45:16;;;;;;;51.60;26.13;;;9.20;1.00;;;;;;5115985;28;20436;-68
2021/11/16 10:47:46;;;;;;;56.77;29.50;;;9.20;1.00;;;;;;5116665;28;20820;-68
2021/11/16 10:50:15;;;;;;;50.57;27.83;;;9.30;1.00;;;;;;5118304;28;20475;-69
2021/11/16 10:52:55;;;;;;;70.87;36.80;;;9.20;1.00;;;;;;5119986;28;20559;-68
2021/11/16 10:55:22;;;;;;;63.47;30.70;;;9.30;1.00;;;;;;5121529;28;20882;-68
2021/11/16 10:57:56;;;;;;;52.73;28.80;;;9.40;1.00;;;;;;5121821;28;20458;-67
2021/11/16 11:00:31;;;;;;;46.00;25.13;;;9.70;1.00;;;;;;5122285;28;20519;-68
2021/11/16 11:03:17;;;;;;;49.90;25.83;;;9.90;1.00;;;;;;5121304;28;20842;-68
2021/11/16 11:05:45;;;;;;;47.47;26.87;;;10.10;99.90;;;;;;5121981;27;20450;-69
2021/11/16 11:08:12;;;;;;;46.37;24.77;;;10.20;99.90;;;;;;5121393;28;20580;-67
2021/11/16 11:10:48;;;;;;;47.70;27.07;;;10.30;99.90;;;;;;5121294;28;20459;-69
2021/11/16 11:13:20;;;;;;;49.63;26.47;;;10.40;84.20;;;;;;5120929;28;20521;-68
2021/11/16 11:15:48;;;;;;;45.03;25.53;;;10.50;1.00;;;;;;5121573;28;20452;-68
2021/11/16 11:18:29;;;;;;;47.47;26.63;;;10.60;1.00;;;;;;5121322;28;20819;-68
2021/11/16 11:20:56;;;;;;;62.67;27.97;;;10.70;99.90;;;;;;5121501;28;20480;-69
2021/11/16 11:23:26;;;;;;;54.73;28.23;;;10.80;1.00;;;;;;5121193;28;20467;-69
2021/11/16 11:25:55;;;;;;;46.67;26.40;;;10.80;99.90;;;;;;5120279;27;20490;-69
2021/11/16 11:28:42;;;;;;;48.63;27.27;;;10.70;99.90;;;;;;5120820;28;20976;-70
2021/11/16 11:31:25;;;;;;;61.90;32.70;;;10.70;1.00;;;;;;5120860;28;20907;-68
2021/11/16 11:33:53;;;;;;;52.07;27.47;;;10.80;1.00;;;;;;5121044;28;20450;-69
2021/11/16 11:36:21;;;;;;;43.03;25.57;;;11.00;1.00;;;;;;5121940;28;20551;-70
2021/11/16 11:38:51;;;;;;;48.93;30.43;;;11.10;99.90;;;;;;5121561;28;20449;-68
2021/11/16 11:41:18;;;;;;;43.40;25.30;;;11.20;1.00;;;;;;5121330;28;20459;-68
2021/11/16 11:43:47;;;;;;;43.60;25.57;;;11.10;1.00;;;;;;5122135;27;20453;-68
2021/11/16 11:46:14;;;;;;;43.97;26.40;;;11.20;99.90;;;;;;5120334;28;20468;-69
2021/11/16 11:48:41;;;;;;;42.40;25.47;;;11.20;99.90;;;;;;5120397;28;20799;-68
2021/11/16 11:51:11;;;;;;;46.30;25.20;;;11.30;99.90;;;;;;5121395;28;20463;-68
2021/11/16 11:53:41;;;;;;;40.10;25.60;;;11.30;99.90;;;;;;5120791;27;20500;-69
2021/11/16 11:56:10;;;;;;;43.33;25.90;;;11.30;1.00;;;;;;5120477;28;20929;-68
2021/11/16 11:58:40;;;;;;;44.60;24.90;;;11.30;1.00;;;;;;5121157;28;20441;-69
2021/11/16 12:01:09;;;;;;;42.93;26.67;;;11.30;1.00;;;;;;5120566;28;20496;-69
2021/11/16 12:03:38;;;;;;;60.33;29.50;;;11.20;1.00;;;;;;5120446;28;20449;-68
2021/11/16 12:06:05;;;;;;;44.90;26.33;;;11.00;1.00;;;;;;5119242;28;20464;-68
2021/11/16 12:08:34;;;;;;;44.60;25.67;;;10.90;99.90;;;;;;5119577;28;20523;-68
2021/11/16 12:11:01;;;;;;;52.53;26.83;;;10.90;99.90;;;;;;5120066;28;20463;-68
2021/11/16 12:13:30;;;;;;;51.20;27.93;;;10.90;1.00;;;;;;5120483;28;20780;-68
2021/11/16 12:16:04;;;;;;;52.63;27.50;;;10.90;1.00;;;;;;5120030;28;20464;-69
2021/11/16 12:18:42;;;;;;;49.10;26.40;;;10.90;1.00;;;;;;5120308;28;20441;-68
2021/11/16 12:21:25;;;;;;;48.30;26.63;;;10.90;1.00;;;;;;5120173;28;20477;-68
2021/11/16 12:23:55;;;;;;;44.37;26.10;;;10.90;1.00;;;;;;5120225;27;20475;-68
2021/11/16 12:26:23;;;;;;;46.33;25.97;;;10.90;1.00;;;;;;5119243;28;20437;-68
2021/11/16 12:28:52;;;;;;;49.47;26.17;;;10.80;1.00;;;;;;5119471;28;20533;-68
2021/11/16 12:31:25;;;;;;;53.40;27.50;;;10.90;99.00;;;;;;5119545;28;20464;-68
2021/11/16 12:33:52;;;;;;;47.23;27.00;;;10.90;63.10;;;;;;5119886;28;20461;-68
2021/11/16 12:36:40;;;;;;;48.17;27.00;;;11.00;1.00;;;;;;5119942;28;20796;-69
2021/11/16 12:39:14;;;;;;;49.83;26.17;;;11.00;1.00;;;;;;5119847;28;20473;-68
2021/11/16 12:41:43;;;;;;;53.83;28.03;;;11.10;1.00;;;;;;5120023;28;20468;-69
2021/11/16 12:44:13;;;;;;;61.50;28.13;;;11.00;1.00;;;;;;5119910;27;20465;-67
2021/11/16 12:46:41;;;;;;;52.10;27.33;;;11.00;80.90;;;;;;5120791;28;20453;-69
2021/11/16 12:49:10;;;;;;;52.87;28.60;;;11.00;99.90;;;;;;5119562;28;20476;-69
2021/11/16 12:51:53;;;;;;;53.40;28.83;;;11.00;5.80;;;;;;5119324;28;20553;-68
2021/11/16 12:54:22;;;;;;;56.17;27.80;;;10.90;1.00;;;;;;5119305;28;20444;-69
2021/11/16 12:57:16;;;;;;;45.40;26.10;;;10.90;99.90;;;;;;5119588;28;20461;-68